Terminal Aerodrome Forecast
Issued by NWS North Platte, NE

Home | Current Version | Previous Version | Graphics & Text | Print | Product List | Glossary On
Versions: 1 2 3 4 5 6 7 8 9 10 11 12 13 14 15 16 17 18 19 20 21 22 23 24 25 26 27
313
FTUS43 KLBF 102320
TAFVTN
TAF
KVTN 102320Z 1100/1124 36011KT P6SM SCT250
     FM110400 VRB03KT P6SM OVC025
      TEMPO 1108/1112 5SM BR OVC012
     FM111200 16006KT P6SM OVC015
     FM112000 27010KT P6SM OVC070=

USA.gov is the U.S. government's official web portal to all federal, state and local government web resources and services.